createdAt,value
2023-05-14T00:01:18.143Z,10.85
2023-05-14T00:03:44.973Z,8.05
2023-05-14T00:06:11.789Z,8.77
2023-05-14T00:08:38.526Z,7.68
2023-05-14T00:11:05.635Z,7.80
2023-05-14T00:13:32.632Z,9.10
2023-05-14T00:15:59.351Z,9.18
2023-05-14T00:18:26.224Z,8.20
2023-05-14T00:20:55.073Z,11.95
2023-05-14T00:23:24.916Z,10.77
2023-05-14T00:25:51.669Z,10.45
2023-05-14T00:28:18.417Z,9.18
2023-05-14T00:30:45.514Z,8.45
2023-05-14T00:33:12.329Z,9.70
2023-05-14T00:35:39.254Z,14.25
2023-05-14T00:38:06.157Z,11.30
2023-05-14T00:40:32.982Z,11.30
2023-05-14T00:42:59.697Z,12.50
2023-05-14T00:45:26.435Z,12.65
2023-05-14T00:47:54.224Z,14.15
2023-05-14T00:50:21.499Z,12.18
2023-05-14T00:52:48.452Z,12.95
2023-05-14T00:55:16.897Z,13.27
2023-05-14T00:57:43.804Z,12.90
2023-05-14T01:02:52.328Z,12.55
2023-05-14T01:05:19.490Z,11.82
2023-05-14T01:08:05.618Z,11.75
2023-05-14T01:10:42.878Z,12.93
2023-05-14T01:13:14.329Z,11.60
2023-05-14T01:15:42.198Z,9.60
2023-05-14T01:18:11.664Z,9.50
2023-05-14T01:20:38.471Z,10.77
2023-05-14T01:23:05.274Z,12.25
2023-05-14T01:25:32.484Z,11.15
2023-05-14T01:28:24.793Z,13.05
2023-05-14T01:30:58.365Z,10.25
2023-05-14T01:33:26.654Z,11.30
2023-05-14T01:35:54.504Z,10.00
2023-05-14T01:38:22.073Z,10.25
2023-05-14T01:40:49.399Z,8.50
2023-05-14T01:43:16.551Z,9.63
2023-05-14T01:45:43.938Z,9.30
2023-05-14T01:48:11.083Z,10.05
2023-05-14T01:50:38.102Z,11.40
2023-05-14T01:53:04.877Z,13.35
2023-05-14T01:55:31.603Z,10.18
2023-05-14T01:57:58.318Z,12.88
2023-05-14T02:00:26.338Z,12.10
2023-05-14T02:02:53.385Z,12.00
2023-05-14T02:05:20.394Z,11.25
2023-05-14T02:07:47.210Z,10.73
2023-05-14T02:10:13.906Z,14.00
2023-05-14T02:12:40.743Z,12.50
2023-05-14T02:15:09.283Z,10.63
2023-05-14T02:17:36.056Z,11.60
2023-05-14T02:20:02.990Z,9.65
2023-05-14T02:22:29.691Z,10.95
2023-05-14T02:24:56.409Z,13.90
2023-05-14T02:27:23.140Z,10.73
2023-05-14T02:29:50.224Z,12.77
2023-05-14T02:32:16.991Z,10.02
2023-05-14T02:34:43.835Z,12.60
2023-05-14T02:37:10.541Z,9.60
2023-05-14T02:39:37.301Z,10.90
2023-05-14T02:42:04.151Z,9.40
2023-05-14T02:44:32.041Z,10.00
2023-05-14T02:46:58.925Z,9.95
2023-05-14T02:49:25.743Z,9.80
2023-05-14T02:51:54.570Z,11.45
2023-05-14T02:54:21.278Z,9.68
2023-05-14T02:56:48.154Z,10.55
2023-05-14T02:59:14.897Z,10.05
2023-05-14T03:01:42.333Z,12.93
2023-05-14T03:04:09.482Z,10.75
2023-05-14T03:06:36.227Z,10.10
2023-05-14T03:09:03.063Z,13.15
2023-05-14T03:11:29.882Z,10.57
2023-05-14T03:13:56.677Z,10.70
2023-05-14T03:16:23.434Z,11.27
2023-05-14T03:18:50.660Z,11.05
2023-05-14T03:21:17.534Z,8.95
2023-05-14T03:23:44.584Z,9.43
2023-05-14T03:26:11.415Z,8.23
2023-05-14T03:28:38.139Z,7.95
2023-05-14T03:31:05.180Z,10.98
2023-05-14T03:33:32.171Z,10.55
2023-05-14T03:35:58.853Z,10.05
2023-05-14T03:38:25.685Z,9.65
2023-05-14T03:40:52.561Z,10.77
2023-05-14T03:43:19.351Z,9.63
2023-05-14T03:45:46.113Z,9.73
2023-05-14T03:48:13.302Z,12.63
2023-05-14T03:50:40.662Z,10.32
2023-05-14T03:53:07.589Z,9.80
2023-05-14T03:55:34.374Z,10.35
2023-05-14T03:58:02.344Z,10.93
2023-05-14T04:00:29.757Z,11.32
2023-05-14T04:02:56.620Z,11.38
2023-05-14T04:05:24.051Z,9.23
2023-05-14T04:07:52.933Z,10.95
2023-05-14T04:10:19.851Z,11.40
2023-05-14T04:12:46.584Z,12.13
2023-05-14T04:15:13.457Z,11.48
2023-05-14T04:17:40.507Z,12.85
2023-05-14T04:20:08.347Z,10.20
2023-05-14T04:22:35.308Z,12.65
2023-05-14T04:25:02.319Z,11.68
2023-05-14T04:27:29.101Z,9.18
2023-05-14T04:29:56.130Z,11.63
2023-05-14T04:32:23.587Z,14.18
2023-05-14T04:34:51.447Z,10.57
2023-05-14T04:37:18.359Z,13.05
2023-05-14T04:39:45.930Z,12.73
2023-05-14T04:42:12.872Z,13.23
2023-05-14T04:44:39.705Z,14.65
2023-05-14T04:47:07.349Z,10.35
2023-05-14T04:49:34.208Z,11.82
2023-05-14T04:52:01.953Z,10.73
2023-05-14T04:54:28.803Z,9.95
2023-05-14T04:56:56.275Z,10.90
2023-05-14T04:59:23.136Z,10.43
2023-05-14T05:01:51.954Z,11.70
2023-05-14T05:04:19.431Z,11.45
2023-05-14T05:06:49.434Z,10.23
2023-05-14T05:09:18.547Z,12.15
2023-05-14T05:11:45.444Z,10.77
2023-05-14T05:14:12.169Z,10.43
2023-05-14T05:16:39.005Z,10.30
2023-05-14T05:19:06.101Z,10.93
2023-05-14T05:21:33.723Z,12.65
2023-05-14T05:24:00.638Z,12.13
2023-05-14T05:26:27.726Z,9.52
2023-05-14T05:28:54.601Z,11.18
2023-05-14T05:31:21.602Z,10.98
2023-05-14T05:33:48.564Z,10.10
2023-05-14T05:36:15.318Z,10.80
2023-05-14T05:38:42.885Z,11.27
2023-05-14T05:41:09.625Z,10.23
2023-05-14T05:43:36.947Z,10.65
2023-05-14T05:46:03.774Z,10.35
2023-05-14T05:48:30.864Z,11.02
2023-05-14T05:50:58.167Z,9.55
2023-05-14T05:53:25.230Z,9.73
2023-05-14T05:55:52.169Z,9.98
2023-05-14T05:58:19.557Z,10.00
2023-05-14T06:00:47.701Z,9.15
2023-05-14T06:03:14.571Z,9.38
2023-05-14T06:05:41.932Z,9.45
2023-05-14T06:08:09.320Z,9.43
2023-05-14T06:10:36.680Z,9.68
2023-05-14T06:13:04.288Z,9.57
2023-05-14T06:15:31.007Z,10.65
2023-05-14T06:17:57.992Z,10.95
2023-05-14T06:20:25.072Z,12.00
2023-05-14T06:22:52.519Z,10.43
2023-05-14T06:25:19.513Z,10.25
2023-05-14T06:27:46.834Z,12.20
2023-05-14T06:30:14.295Z,10.48
2023-05-14T06:32:41.147Z,12.02
2023-05-14T06:35:09.189Z,10.75
2023-05-14T06:37:36.093Z,12.88
2023-05-14T06:40:04.223Z,11.45
2023-05-14T06:42:31.052Z,10.18
2023-05-14T06:44:57.888Z,12.52
2023-05-14T06:47:25.206Z,10.35
2023-05-14T06:49:52.521Z,9.75
2023-05-14T06:52:19.305Z,10.05
2023-05-14T06:54:46.310Z,10.05
2023-05-14T06:57:13.816Z,9.77
2023-05-14T06:59:40.529Z,10.50
2023-05-14T07:02:07.530Z,11.45
2023-05-14T07:04:34.674Z,8.75
2023-05-14T07:07:01.863Z,9.57
2023-05-14T07:09:29.221Z,8.38
2023-05-14T07:11:56.090Z,8.35
2023-05-14T07:14:22.874Z,8.80
2023-05-14T07:16:49.670Z,8.18
2023-05-14T07:19:16.613Z,7.95
2023-05-14T07:21:43.931Z,8.45
2023-05-14T07:24:10.769Z,7.97
2023-05-14T07:26:37.856Z,8.85
2023-05-14T07:29:04.628Z,10.98
2023-05-14T07:31:32.260Z,9.75
2023-05-14T07:33:59.715Z,6.60
2023-05-14T07:36:26.536Z,6.50
2023-05-14T07:38:53.259Z,7.07
2023-05-14T07:41:20.137Z,6.75
2023-05-14T07:43:46.890Z,6.40
2023-05-14T07:46:14.290Z,6.80
2023-05-14T07:48:41.336Z,7.47
2023-05-14T07:51:08.117Z,6.65
2023-05-14T07:53:34.946Z,6.40
2023-05-14T07:56:01.794Z,7.30
2023-05-14T07:58:29.208Z,6.78
2023-05-14T08:00:56.874Z,6.15
2023-05-14T08:03:23.872Z,7.57
2023-05-14T08:05:52.456Z,6.35
2023-05-14T08:08:19.328Z,5.30
2023-05-14T08:10:46.073Z,4.93
2023-05-14T08:13:12.767Z,6.57
2023-05-14T08:15:39.621Z,6.97
2023-05-14T08:18:06.619Z,7.45
2023-05-14T08:20:33.592Z,5.72
2023-05-14T08:23:00.377Z,6.82
2023-05-14T08:25:27.226Z,6.07
2023-05-14T08:27:54.541Z,5.40
2023-05-14T08:30:22.373Z,6.60
2023-05-14T08:32:49.830Z,5.18
2023-05-14T08:35:17.701Z,6.38
2023-05-14T08:37:46.521Z,4.70
2023-05-14T08:40:13.983Z,4.90
2023-05-14T08:42:45.263Z,5.30
2023-05-14T08:45:22.298Z,5.40
2023-05-14T08:47:50.976Z,5.88
2023-05-14T08:50:19.906Z,6.40
2023-05-14T08:52:49.334Z,5.43
2023-05-14T08:55:16.693Z,8.95
2023-05-14T08:57:46.925Z,4.80
2023-05-14T09:00:15.894Z,6.90
2023-05-14T09:02:44.958Z,5.00
2023-05-14T09:05:12.756Z,5.85
2023-05-14T09:07:39.903Z,5.25
2023-05-14T09:10:09.390Z,5.63
2023-05-14T09:12:36.674Z,5.35
2023-05-14T09:15:05.167Z,5.00
2023-05-14T09:17:32.378Z,6.55
2023-05-14T09:19:59.815Z,5.35
2023-05-14T09:22:32.927Z,4.90
2023-05-14T09:25:07.330Z,4.70
2023-05-14T09:27:34.503Z,5.22
2023-05-14T09:30:14.400Z,5.10
2023-05-14T09:32:50.636Z,5.90
2023-05-14T09:35:18.922Z,6.18
2023-05-14T09:37:49.545Z,4.22
2023-05-14T09:40:17.555Z,5.68
2023-05-14T09:42:44.495Z,6.10
2023-05-14T09:45:11.864Z,5.05
2023-05-14T09:47:39.543Z,4.57
2023-05-14T09:50:08.347Z,4.03
2023-05-14T09:52:35.948Z,4.72
2023-05-14T09:55:03.041Z,4.35
2023-05-14T09:57:29.988Z,5.03
2023-05-14T09:59:56.864Z,7.18
2023-05-14T10:02:34.203Z,3.97
2023-05-14T10:05:02.977Z,3.80
2023-05-14T10:07:34.130Z,3.35
2023-05-14T10:10:03.821Z,4.07
2023-05-14T10:12:34.907Z,3.88
2023-05-14T10:15:13.964Z,5.47
2023-05-14T10:17:41.839Z,4.00
2023-05-14T10:20:10.407Z,3.88
2023-05-14T10:22:37.410Z,3.72
2023-05-14T10:25:04.955Z,6.10
2023-05-14T10:27:32.022Z,4.88
2023-05-14T10:29:58.838Z,4.47
2023-05-14T10:32:26.723Z,4.20
2023-05-14T10:34:54.008Z,4.22
2023-05-14T10:37:25.770Z,5.15
2023-05-14T10:40:13.370Z,5.00
2023-05-14T10:42:41.215Z,4.70
2023-05-14T10:45:09.300Z,4.43
2023-05-14T10:47:37.586Z,4.35
2023-05-14T10:50:06.900Z,7.82
2023-05-14T10:52:35.639Z,5.45
2023-05-14T10:55:10.583Z,3.88
2023-05-14T10:57:39.259Z,3.42
2023-05-14T11:00:09.962Z,3.58
2023-05-14T11:02:38.442Z,6.30
2023-05-14T11:05:14.453Z,3.50
2023-05-14T11:07:46.209Z,3.72
2023-05-14T11:10:14.853Z,3.20
2023-05-14T11:12:47.464Z,4.25
2023-05-14T11:15:22.014Z,3.13
2023-05-14T11:17:50.644Z,3.40
2023-05-14T11:20:18.460Z,5.25
2023-05-14T11:22:46.332Z,5.45
2023-05-14T11:25:16.494Z,3.13
2023-05-14T11:27:44.696Z,2.95
2023-05-14T11:30:21.099Z,3.28
2023-05-14T11:32:49.765Z,2.97
2023-05-14T11:35:17.565Z,2.60
2023-05-14T11:37:50.983Z,2.88
2023-05-14T11:40:18.203Z,3.63
2023-05-14T11:42:45.632Z,2.60
2023-05-14T11:45:13.407Z,2.60
2023-05-14T11:47:41.644Z,2.80
2023-05-14T11:50:21.237Z,2.72
2023-05-14T11:52:50.910Z,2.45
2023-05-14T11:55:18.141Z,2.60
2023-05-14T11:57:45.348Z,3.00
2023-05-14T12:00:22.039Z,2.70
2023-05-14T12:02:51.017Z,3.05
2023-05-14T12:05:24.430Z,2.83
2023-05-14T12:07:59.758Z,2.80
2023-05-14T12:10:26.639Z,2.60
2023-05-14T12:12:53.783Z,2.65
2023-05-14T12:15:22.122Z,2.47
2023-05-14T12:17:52.553Z,2.60
2023-05-14T12:20:19.415Z,4.35
2023-05-14T12:22:46.304Z,2.75
2023-05-14T12:25:14.296Z,3.80
2023-05-14T12:27:41.727Z,2.78
2023-05-14T12:32:42.191Z,2.42
2023-05-14T12:35:09.741Z,2.97
2023-05-14T12:37:37.768Z,2.88
2023-05-14T12:40:09.655Z,2.92
2023-05-14T12:42:37.230Z,3.17
2023-05-14T12:45:07.593Z,3.05
2023-05-14T12:47:34.821Z,2.70
2023-05-14T12:50:01.882Z,2.58
2023-05-14T12:52:37.625Z,3.63
2023-05-14T12:55:06.827Z,3.97
2023-05-14T12:57:35.909Z,4.25
2023-05-14T13:00:07.121Z,4.65
2023-05-14T13:02:41.992Z,3.65
2023-05-14T13:05:10.400Z,3.10
2023-05-14T13:07:37.366Z,3.10
2023-05-14T13:10:06.093Z,5.22
2023-05-14T13:12:33.200Z,2.92
2023-05-14T13:15:00.078Z,3.10
2023-05-14T13:17:27.026Z,3.60
2023-05-14T13:19:53.865Z,3.22
2023-05-14T13:22:24.066Z,3.70
2023-05-14T13:24:50.997Z,6.07
2023-05-14T13:27:17.845Z,4.00
2023-05-14T13:29:44.593Z,3.38
2023-05-14T13:32:11.452Z,2.70
2023-05-14T13:34:38.244Z,3.00
2023-05-14T13:37:05.062Z,4.07
2023-05-14T13:39:31.795Z,2.50
2023-05-14T13:41:58.740Z,2.70
2023-05-14T13:44:25.588Z,2.97
2023-05-14T13:46:52.738Z,3.45
2023-05-14T13:49:19.825Z,2.60
2023-05-14T13:51:46.524Z,2.75
2023-05-14T13:54:13.553Z,4.43
2023-05-14T13:56:40.531Z,3.10
2023-05-14T13:59:07.408Z,2.88
2023-05-14T14:01:34.139Z,3.53
2023-05-14T14:04:01.143Z,3.08
2023-05-14T14:06:27.879Z,5.45
2023-05-14T14:08:54.966Z,4.05
2023-05-14T14:11:22.499Z,3.47
2023-05-14T14:13:49.345Z,4.05
2023-05-14T14:16:16.517Z,3.30
2023-05-14T14:18:43.602Z,3.20
2023-05-14T14:21:10.760Z,4.20
2023-05-14T14:23:37.656Z,3.88
2023-05-14T14:26:04.648Z,4.63
2023-05-14T14:28:31.663Z,3.75
2023-05-14T14:31:00.842Z,2.63
2023-05-14T14:33:28.017Z,2.85
2023-05-14T14:35:54.952Z,4.38
2023-05-14T14:38:21.888Z,3.65
2023-05-14T14:40:49.276Z,7.07
2023-05-14T14:43:16.785Z,3.58
2023-05-14T14:45:48.232Z,4.38
2023-05-14T14:48:34.736Z,5.80
2023-05-14T14:51:01.815Z,4.60
2023-05-14T14:53:28.957Z,4.82
2023-05-14T14:55:56.073Z,2.45
2023-05-14T14:58:23.302Z,3.08
2023-05-14T15:00:55.356Z,1.67
2023-05-14T15:03:23.123Z,1.50
2023-05-14T15:05:50.188Z,1.52
2023-05-14T15:08:17.196Z,1.95
2023-05-14T15:10:45.268Z,1.30
2023-05-14T15:13:15.858Z,3.10
2023-05-14T15:15:42.603Z,1.33
2023-05-14T15:18:09.831Z,2.80
2023-05-14T15:20:36.560Z,2.28
2023-05-14T15:23:03.547Z,2.83
2023-05-14T15:25:30.375Z,2.80
2023-05-14T15:27:57.943Z,2.60
2023-05-14T15:30:24.722Z,4.03
2023-05-14T15:32:51.933Z,3.80
2023-05-14T15:35:19.009Z,4.05
2023-05-14T15:37:45.918Z,3.83
2023-05-14T15:40:13.406Z,3.10
2023-05-14T15:42:44.527Z,6.03
2023-05-14T15:45:12.977Z,4.13
2023-05-14T15:47:40.957Z,4.55
2023-05-14T15:50:08.954Z,3.53
2023-05-14T15:52:40.463Z,3.35
2023-05-14T15:55:11.813Z,4.30
2023-05-14T15:57:38.812Z,3.78
2023-05-14T16:00:10.712Z,6.63
2023-05-14T16:02:40.537Z,3.72
2023-05-14T16:05:08.760Z,4.75
2023-05-14T16:07:36.638Z,3.72
2023-05-14T16:10:07.023Z,4.38
2023-05-14T16:12:34.327Z,4.00
2023-05-14T16:15:01.562Z,8.73
2023-05-14T16:17:28.965Z,3.10
2023-05-14T16:19:56.615Z,3.88
2023-05-14T16:22:23.722Z,3.50
2023-05-14T16:24:50.582Z,4.10
2023-05-14T16:27:19.319Z,3.92
2023-05-14T16:29:46.260Z,3.50
2023-05-14T16:32:13.235Z,3.95
2023-05-14T16:34:40.332Z,3.13
2023-05-14T16:37:07.394Z,4.93
2023-05-14T16:39:34.630Z,5.43
2023-05-14T16:42:01.389Z,3.17
2023-05-14T16:44:28.197Z,3.17
2023-05-14T16:46:55.072Z,3.75
2023-05-14T16:49:23.284Z,3.97
2023-05-14T16:51:50.505Z,3.60
2023-05-14T16:54:17.361Z,4.10
2023-05-14T16:56:48.808Z,3.40
2023-05-14T16:59:16.658Z,4.57
2023-05-14T17:01:45.244Z,4.05
2023-05-14T17:04:12.182Z,3.83
2023-05-14T17:06:38.919Z,3.72
2023-05-14T17:09:05.918Z,5.07
2023-05-14T17:11:32.731Z,2.95
2023-05-14T17:13:59.379Z,2.88
2023-05-14T17:16:27.329Z,3.05
2023-05-14T17:18:54.355Z,2.80
2023-05-14T17:21:21.089Z,4.28
2023-05-14T17:23:47.896Z,3.55
2023-05-14T17:26:14.658Z,3.92
2023-05-14T17:28:41.367Z,5.38
2023-05-14T17:31:08.186Z,3.42
2023-05-14T17:33:34.899Z,2.58
2023-05-14T17:36:01.762Z,2.83
2023-05-14T17:38:28.520Z,2.85
2023-05-14T17:40:55.608Z,3.00
2023-05-14T17:43:22.324Z,3.35
2023-05-14T17:48:19.712Z,2.78
2023-05-14T17:50:46.415Z,2.75
2023-05-14T17:53:13.218Z,4.10
2023-05-14T17:55:43.891Z,5.20
2023-05-14T17:58:15.661Z,4.75
2023-05-14T18:00:43.912Z,2.80
2023-05-14T18:03:10.945Z,3.53
2023-05-14T18:05:37.713Z,2.78
2023-05-14T18:08:04.614Z,3.30
2023-05-14T18:10:31.411Z,3.47
2023-05-14T18:12:58.478Z,4.30
2023-05-14T18:15:26.094Z,2.95
2023-05-14T18:17:53.194Z,3.42
2023-05-14T18:20:20.740Z,4.60
2023-05-14T18:22:47.467Z,4.70
2023-05-14T18:25:14.375Z,3.75
2023-05-14T18:27:44.950Z,3.78
2023-05-14T18:30:13.589Z,4.10
2023-05-14T18:32:41.700Z,4.47
2023-05-14T18:35:08.942Z,6.25
2023-05-14T18:37:35.802Z,6.68
2023-05-14T18:40:04.502Z,10.18
2023-05-14T18:42:31.314Z,12.73
2023-05-14T18:44:58.088Z,11.30
2023-05-14T18:47:24.994Z,7.63
2023-05-14T18:49:55.469Z,7.45
2023-05-14T18:52:23.138Z,4.68
2023-05-14T18:54:51.381Z,5.60
2023-05-14T18:57:18.214Z,4.30
2023-05-14T18:59:44.943Z,4.45
2023-05-14T19:02:11.655Z,4.25
2023-05-14T19:04:50.632Z,3.80
2023-05-14T19:07:19.057Z,4.60
2023-05-14T19:09:46.094Z,4.38
2023-05-14T19:12:13.277Z,4.20
2023-05-14T19:14:40.308Z,4.78
2023-05-14T19:17:07.049Z,4.88
2023-05-14T19:19:33.999Z,4.72
2023-05-14T19:22:00.752Z,5.47
2023-05-14T19:24:27.530Z,4.00
2023-05-14T19:26:54.345Z,4.38
2023-05-14T19:29:21.060Z,4.78
2023-05-14T19:31:47.846Z,4.47
2023-05-14T19:34:14.673Z,5.65
2023-05-14T19:36:41.995Z,6.32
2023-05-14T19:39:08.740Z,4.88
2023-05-14T19:41:35.535Z,5.13
2023-05-14T19:44:02.278Z,5.40
2023-05-14T19:46:29.188Z,6.47
2023-05-14T19:48:55.871Z,4.95
2023-05-14T19:51:22.647Z,5.70
2023-05-14T19:53:49.385Z,5.22
2023-05-14T19:56:16.326Z,7.43
2023-05-14T19:58:43.912Z,6.03
2023-05-14T20:01:12.283Z,5.50
2023-05-14T20:03:39.290Z,6.00
2023-05-14T20:06:07.438Z,5.63
2023-05-14T20:08:34.180Z,6.35
2023-05-14T20:11:01.121Z,4.97
2023-05-14T20:13:27.926Z,6.60
2023-05-14T20:15:55.371Z,5.28
2023-05-14T20:18:22.224Z,6.60
2023-05-14T20:20:49.406Z,4.88
2023-05-14T20:23:16.188Z,5.97
2023-05-14T20:25:43.335Z,6.65
2023-05-14T20:28:10.736Z,5.10
2023-05-14T20:30:37.681Z,5.07
2023-05-14T20:33:04.614Z,4.90
2023-05-14T20:35:31.452Z,4.97
2023-05-14T20:37:58.861Z,5.28
2023-05-14T20:40:25.715Z,11.63
2023-05-14T20:42:52.495Z,6.10
2023-05-14T20:45:19.306Z,6.53
2023-05-14T20:47:46.421Z,5.60
2023-05-14T20:50:13.978Z,5.10
2023-05-14T20:52:41.057Z,12.77
2023-05-14T20:55:08.818Z,11.60
2023-05-14T20:57:35.807Z,6.57
2023-05-14T21:00:07.265Z,5.97
2023-05-14T21:02:34.856Z,6.85
2023-05-14T21:05:01.856Z,7.85
2023-05-14T21:07:29.039Z,10.95
2023-05-14T21:09:55.915Z,8.63
2023-05-14T21:12:22.880Z,6.90
2023-05-14T21:14:49.572Z,5.40
2023-05-14T21:17:16.265Z,4.85
2023-05-14T21:19:43.014Z,5.97
2023-05-14T21:22:09.696Z,5.80
2023-05-14T21:24:36.432Z,5.13
2023-05-14T21:27:03.158Z,5.65
2023-05-14T21:29:29.950Z,7.25
2023-05-14T21:31:56.687Z,6.82
2023-05-14T21:34:23.401Z,5.43
2023-05-14T21:36:50.362Z,5.45
2023-05-14T21:39:17.067Z,7.28
2023-05-14T21:41:43.845Z,5.85
2023-05-14T21:44:10.591Z,5.88
2023-05-14T21:46:37.272Z,7.63
2023-05-14T21:49:04.032Z,6.18
2023-05-14T21:51:32.400Z,5.55
2023-05-14T21:53:59.195Z,5.50
2023-05-14T21:56:26.593Z,7.82
2023-05-14T21:58:55.755Z,6.47
2023-05-14T22:01:22.534Z,6.75
2023-05-14T22:03:49.420Z,13.68
2023-05-14T22:06:16.141Z,13.40
2023-05-14T22:08:42.922Z,12.93
2023-05-14T22:11:09.635Z,8.85
2023-05-14T22:13:41.108Z,11.00
2023-05-14T22:16:13.307Z,7.28
2023-05-14T22:18:40.904Z,7.05
2023-05-14T22:21:07.717Z,9.60
2023-05-14T22:23:34.600Z,17.42
2023-05-14T22:26:01.570Z,26.40
2023-05-14T22:28:28.317Z,21.65
2023-05-14T22:30:56.783Z,19.42
2023-05-14T22:33:23.551Z,14.23
2023-05-14T22:35:50.293Z,11.30
2023-05-14T22:38:17.017Z,8.10
2023-05-14T22:40:43.752Z,8.63
2023-05-14T22:43:10.937Z,5.85
2023-05-14T22:45:37.670Z,7.38
2023-05-14T22:48:04.629Z,8.60
2023-05-14T22:50:31.423Z,9.75
2023-05-14T22:52:58.369Z,6.60
2023-05-14T22:55:25.193Z,5.93
2023-05-14T22:57:52.104Z,5.95
2023-05-14T23:00:19.054Z,6.25
2023-05-14T23:02:45.962Z,6.28
2023-05-14T23:05:12.741Z,10.75
2023-05-14T23:07:39.557Z,6.55
2023-05-14T23:10:06.943Z,7.55
2023-05-14T23:12:33.794Z,7.53
2023-05-14T23:15:00.570Z,5.90
2023-05-14T23:17:27.392Z,5.60
2023-05-14T23:19:54.335Z,10.30
2023-05-14T23:22:21.169Z,5.70
2023-05-14T23:24:47.864Z,8.65
2023-05-14T23:27:14.580Z,7.03
2023-05-14T23:29:41.317Z,6.95
2023-05-14T23:32:08.659Z,6.10
2023-05-14T23:34:35.743Z,6.00
2023-05-14T23:37:02.614Z,5.97
2023-05-14T23:39:29.387Z,6.38
2023-05-14T23:41:56.104Z,7.25
2023-05-14T23:44:22.900Z,6.18
2023-05-14T23:46:49.742Z,7.32
2023-05-14T23:49:16.556Z,6.70
2023-05-14T23:51:43.370Z,7.07
2023-05-14T23:54:10.086Z,6.75
2023-05-14T23:56:36.858Z,6.90
2023-05-14T23:59:03.921Z,6.50
